»·PEaware :: UAL1399 KASE-KDEN

UAL1399 :: KASE-KDEN

FLIGHT INFORMATION

Flight Status: Arrived
Operator:
United Airlines
More flights by this operator :: More flights under this callsign
Pilot: David C. (16084)
Aircraft: SAAB 340
(SF34)
More flights by this aircraft type
Origin: KASE Aspen-Pitkin Co/Sardy
United States
Destination: KDEN Denver Intl
United States
More flights between these airports :: More routes between these airports
Route: +LINDZ8 DBL POWDR8
File this flight plan on PilotEdge
Remarks:
Altitude:
(Current/Filed)
18,000ft
Speed:
(Current/Filed)
284kts
Departed: 21-Jun-18 11:38 AM
Arrived: 21-Jun-18 12:20 PM
Distance/Time
Traveled:
109nm/0:42
Distance/Time
To Go:
Arrived

Flight Plot

Page will automatically refresh every two minutes.


Map Options




Map Legend


Flown Route
Filed Route
Departure Airport
Arrival Airport
Navaid (VOR, NDB)
Fix

Horizontal Profiles

Position Reports

Time Latitude Longitude Heading Altitude Ground
Speed
21-Jun-18 11:13 39.219474 -106.865041 79 7841ft 0kts
21-Jun-18 11:14 39.219474 -106.865041 79 7841ft 0kts
21-Jun-18 11:15 39.219474 -106.865041 79 7841ft 0kts
21-Jun-18 11:16 39.219474 -106.865041 79 7841ft 0kts
21-Jun-18 11:17 39.219474 -106.865041 79 7841ft 0kts
21-Jun-18 11:18 39.219474 -106.865041 79 7841ft 0kts
21-Jun-18 11:19 39.219474 -106.865041 79 7841ft 0kts
21-Jun-18 11:20 39.219474 -106.865041 79 7841ft 0kts
21-Jun-18 11:21 39.219474 -106.865041 79 7841ft 0kts
21-Jun-18 11:22 39.219474 -106.865041 79 7841ft 0kts
21-Jun-18 11:23 39.219474 -106.865041 79 7841ft 0kts
21-Jun-18 11:24 39.219474 -106.865041 79 7841ft 0kts
21-Jun-18 11:25 39.219474 -106.865041 79 7841ft 0kts
21-Jun-18 11:26 39.219474 -106.865041 79 7841ft 0kts
21-Jun-18 11:27 39.219474 -106.865041 79 7841ft 0kts
21-Jun-18 11:28 39.219474 -106.865041 79 7841ft 0kts
21-Jun-18 11:29 39.219474 -106.865041 79 7841ft 0kts
21-Jun-18 11:30 39.219474 -106.865041 79 7841ft 0kts
21-Jun-18 11:31 39.219351 -106.864892 187 7841ft 2kts
21-Jun-18 11:32 39.219110 -106.864993 198 7841ft 4kts
21-Jun-18 11:33 39.216955 -106.864664 159 7841ft 14kts
21-Jun-18 11:34 39.212894 -106.862721 159 7841ft 18kts
21-Jun-18 11:35 39.212227 -106.862491 184 7841ft 0kts
21-Jun-18 11:36 39.212227 -106.862491 184 7841ft 0kts
21-Jun-18 11:37 39.211739 -106.863381 308 7841ft 6kts
21-Jun-18 11:38 39.216363 -106.865589 339 7841ft 83kts
21-Jun-18 11:39 39.249675 -106.881535 351 8616ft 156kts
21-Jun-18 11:40 39.284770 -106.904778 279 10001ft 165kts
21-Jun-18 11:41 39.294826 -106.964740 279 11303ft 175kts
21-Jun-18 11:42 39.305053 -107.027525 278 12481ft 182kts
21-Jun-18 11:43 39.331154 -107.083319 309 13609ft 191kts
21-Jun-18 11:44 39.368897 -107.132381 309 14661ft 194kts
21-Jun-18 11:45 39.410207 -107.117227 96 15512ft 212kts
21-Jun-18 11:46 39.411621 -107.041552 80 16352ft 220kts
21-Jun-18 11:47 39.425881 -106.965128 76 17259ft 222kts
21-Jun-18 11:48 39.437308 -106.886141 105 18000ft 227kts
21-Jun-18 11:49 39.421236 -106.807712 104 18881ft 224kts
21-Jun-18 11:50 39.404644 -106.727976 104 19388ft 242kts
21-Jun-18 11:51 39.385947 -106.638801 104 19433ft 270kts
21-Jun-18 11:52 39.365588 -106.542139 104 19490ft 285kts
21-Jun-18 11:53 39.344396 -106.441985 104 19500ft 293kts
21-Jun-18 11:54 39.322704 -106.339922 105 19495ft 298kts
21-Jun-18 11:55 39.300706 -106.236893 105 19492ft 298kts
21-Jun-18 11:56 39.278534 -106.133412 105 19493ft 299kts
21-Jun-18 11:57 39.256240 -106.030016 105 19482ft 300kts
21-Jun-18 11:58 39.233959 -105.927178 105 19438ft 301kts
21-Jun-18 11:59 39.211519 -105.822632 96 19367ft 302kts
21-Jun-18 12:00 39.246298 -105.734527 46 19400ft 282kts
21-Jun-18 12:01 39.293198 -105.654216 45 19226ft 287kts
21-Jun-18 12:02 39.342094 -105.571400 45 18072ft 293kts
21-Jun-18 12:03 39.390118 -105.490393 45 17369ft 279kts
21-Jun-18 12:04 39.437059 -105.410930 46 17166ft 287kts
21-Jun-18 12:05 39.490564 -105.342555 48 16970ft 286kts
21-Jun-18 12:06 39.497494 -105.238247 88 16151ft 304kts
21-Jun-18 12:07 39.496285 -105.127369 88 14478ft 312kts
21-Jun-18 12:08 39.494987 -105.022461 88 12823ft 291kts
21-Jun-18 12:09 39.492877 -104.924567 88 11158ft 272kts
21-Jun-18 12:10 39.489875 -104.834087 88 10654ft 251kts
21-Jun-18 12:11 39.487127 -104.740402 88 9383ft 266kts
21-Jun-18 12:12 39.496991 -104.657463 18 8984ft 197kts
21-Jun-18 12:13 39.551754 -104.664150 358 9001ft 210kts
21-Jun-18 12:14 39.605852 -104.663529 357 8997ft 179kts
21-Jun-18 12:15 39.655376 -104.662913 357 8781ft 174kts
21-Jun-18 12:16 39.703525 -104.662290 358 7901ft 177kts
21-Jun-18 12:17 39.749916 -104.661664 359 6985ft 160kts
21-Jun-18 12:18 39.792875 -104.661085 359 6150ft 137kts
21-Jun-18 12:19 39.829502 -104.660581 0 5484ft 130kts
21-Jun-18 12:20 39.845962 -104.660385 354 5436ft 22kts
21-Jun-18 12:21 39.849723 -104.662110 331 5436ft 5kts
21-Jun-18 12:22 39.852477 -104.662398 1 5436ft 16kts
21-Jun-18 12:23 39.856736 -104.663975 271 5436ft 23kts
21-Jun-18 12:24 39.857627 -104.665480 359 5436ft 0kts
21-Jun-18 12:25 39.857627 -104.665480 359 5436ft 0kts

Navigation Log

Ident Type
1. KASE Airport
2. LINDZ Fix
3. LINDZ Fix
4. DBL Navaid
5. DBL Navaid
6. JNETT Fix
7. BASEE Fix
8. SKEED Fix
9. COLAS Fix
10. POWDR Fix
11. HLLIE Fix
12. SLOPE Fix
13. DVV Navaid
14. KDEN Airport